createdAt,value
2018-06-15T00:00:46.376Z,47.50
2018-06-15T00:03:13.985Z,47.30
2018-06-15T00:08:09.295Z,47.20
2018-06-15T00:10:37.051Z,47.30
2018-06-15T00:13:04.763Z,47.00
2018-06-15T00:15:32.418Z,47.10
2018-06-15T00:18:00.082Z,47.10
2018-06-15T00:20:27.783Z,47.30
2018-06-15T00:22:55.563Z,47.10
2018-06-15T00:27:50.494Z,47.20
2018-06-15T00:30:18.386Z,46.90
2018-06-15T00:35:13.346Z,47.10
2018-06-15T00:37:41.419Z,46.80
2018-06-15T00:40:09.193Z,47.00
2018-06-15T00:42:36.902Z,47.60
2018-06-15T00:45:04.710Z,47.20
2018-06-15T00:47:32.310Z,46.90
2018-06-15T00:52:27.283Z,47.10
2018-06-15T00:57:27.891Z,47.10
2018-06-15T00:59:55.494Z,47.00
2018-06-15T01:07:17.845Z,46.40
2018-06-15T01:12:13.076Z,46.70
2018-06-15T01:17:08.154Z,46.80
2018-06-15T01:19:35.722Z,46.30
2018-06-15T01:22:03.422Z,46.60
2018-06-15T01:24:31.261Z,46.60
2018-06-15T01:26:58.942Z,46.90
2018-06-15T01:29:26.702Z,46.80
2018-06-15T01:31:54.479Z,46.80
2018-06-15T01:34:22.133Z,47.10
2018-06-15T01:36:49.775Z,47.00
2018-06-15T01:44:12.139Z,46.80
2018-06-15T01:46:40.148Z,46.90
2018-06-15T01:49:07.739Z,46.60
2018-06-15T01:51:35.352Z,46.90
2018-06-15T01:56:30.299Z,46.80
2018-06-15T01:58:58.069Z,47.20
2018-06-15T02:01:25.893Z,47.30
2018-06-15T02:20:34.308Z,46.20
2018-06-15T02:25:29.348Z,46.20
2018-06-15T02:27:57.131Z,46.00
2018-06-15T02:37:47.274Z,46.50
2018-06-15T02:42:42.543Z,46.10
2018-06-15T02:45:10.217Z,46.60
2018-06-15T02:47:38.047Z,46.50
2018-06-15T02:50:05.776Z,46.70
2018-06-15T02:55:00.998Z,46.90
2018-06-15T02:57:28.827Z,46.90
2018-06-15T02:59:56.458Z,46.50
2018-06-15T03:02:24.241Z,46.80
2018-06-15T03:07:19.364Z,46.70
2018-06-15T03:09:46.996Z,47.00
2018-06-15T03:12:14.624Z,47.00
2018-06-15T03:14:42.271Z,46.40
2018-06-15T03:17:10.034Z,46.60
2018-06-15T03:19:37.874Z,46.60
2018-06-15T03:22:05.647Z,46.60
2018-06-15T03:24:33.285Z,46.20
2018-06-15T03:27:01.005Z,46.30
2018-06-15T03:29:28.695Z,46.40
2018-06-15T03:48:47.202Z,46.30
2018-06-15T03:51:14.776Z,46.80
2018-06-15T03:58:37.032Z,46.80
2018-06-15T04:01:04.762Z,46.60
2018-06-15T04:20:15.290Z,47.20
2018-06-15T04:22:43.053Z,46.70
2018-06-15T04:44:28.922Z,47.40
2018-06-15T04:46:56.661Z,47.40
2018-06-15T04:49:24.270Z,47.40
2018-06-15T04:51:51.925Z,47.40
2018-06-15T04:56:47.456Z,47.60
2018-06-15T05:18:28.617Z,47.60
2018-06-15T05:20:56.218Z,47.40
2018-06-15T05:23:23.859Z,47.40
2018-06-15T05:25:51.527Z,47.40
2018-06-15T05:28:19.164Z,47.60
2018-06-15T05:30:46.786Z,47.40
2018-06-15T05:33:14.783Z,47.50
2018-06-15T05:35:42.386Z,47.40
2018-06-15T05:38:09.996Z,47.30
2018-06-15T05:40:37.572Z,47.30
2018-06-15T05:47:59.769Z,47.30
2018-06-15T05:50:27.468Z,47.30
2018-06-15T05:52:55.170Z,47.30
2018-06-15T05:57:50.071Z,47.30
2018-06-15T06:00:18.040Z,47.30
2018-06-15T06:07:40.280Z,47.90
2018-06-15T06:10:07.925Z,47.10
2018-06-15T06:12:35.525Z,47.20
2018-06-15T06:17:30.524Z,47.10
2018-06-15T06:19:58.110Z,47.20
2018-06-15T06:22:25.722Z,47.10
2018-06-15T06:24:53.369Z,47.10
2018-06-15T06:27:20.951Z,47.00
2018-06-15T06:29:48.626Z,47.10
2018-06-15T06:32:16.183Z,47.10
2018-06-15T06:37:11.141Z,47.00
2018-06-15T06:39:38.714Z,46.90
2018-06-15T06:42:06.275Z,46.90
2018-06-15T06:44:33.894Z,47.00
2018-06-15T06:47:01.487Z,46.90
2018-06-15T06:49:29.082Z,46.90
2018-06-15T06:51:56.692Z,46.80
2018-06-15T06:54:24.393Z,46.90
2018-06-15T06:56:51.986Z,46.90
2018-06-15T06:59:19.609Z,46.90
2018-06-15T07:01:47.176Z,46.90
2018-06-15T07:09:09.229Z,46.70
2018-06-15T07:11:37.335Z,46.70
2018-06-15T07:14:04.919Z,46.70
2018-06-15T07:16:32.491Z,46.60
2018-06-15T07:19:00.142Z,46.60
2018-06-15T07:21:27.708Z,46.60
2018-06-15T07:23:55.302Z,47.20
2018-06-15T07:33:44.776Z,46.50
2018-06-15T07:36:12.381Z,46.40
2018-06-15T07:38:39.953Z,46.50
2018-06-15T07:41:08.061Z,46.50
2018-06-15T07:43:35.714Z,46.30
2018-06-15T07:46:03.383Z,46.40
2018-06-15T07:48:30.902Z,46.30
2018-06-15T07:50:58.547Z,46.30
2018-06-15T07:53:26.134Z,46.30
2018-06-15T07:55:53.788Z,46.30
2018-06-15T07:58:21.466Z,46.30
2018-06-15T08:00:49.026Z,46.30
2018-06-15T08:03:16.680Z,46.20
2018-06-15T08:05:44.326Z,46.20
2018-06-15T08:08:12.929Z,46.20
2018-06-15T08:10:40.485Z,46.10
2018-06-15T08:13:08.095Z,46.20
2018-06-15T08:18:02.821Z,46.20
2018-06-15T08:20:30.306Z,46.10
2018-06-15T08:22:57.791Z,46.10
2018-06-15T08:25:25.278Z,46.00
2018-06-15T08:27:52.819Z,46.00
2018-06-15T08:30:20.278Z,46.10
2018-06-15T08:32:47.771Z,46.10
2018-06-15T08:35:15.255Z,45.90
2018-06-15T08:45:04.686Z,45.80
2018-06-15T08:47:32.297Z,45.70
2018-06-15T08:49:59.936Z,45.70
2018-06-15T08:52:27.499Z,45.70
2018-06-15T08:54:55.144Z,45.70
2018-06-15T08:57:22.727Z,45.70
2018-06-15T08:59:50.295Z,45.70
2018-06-15T09:02:17.983Z,45.70
2018-06-15T09:04:45.579Z,45.70
2018-06-15T09:07:13.313Z,45.70
2018-06-15T09:09:40.930Z,45.60
2018-06-15T09:12:08.597Z,45.70
2018-06-15T09:14:36.218Z,45.60
2018-06-15T09:17:03.790Z,45.60
2018-06-15T09:19:31.341Z,45.60
2018-06-15T09:21:58.918Z,45.50
2018-06-15T09:24:26.882Z,45.50
2018-06-15T09:26:54.444Z,45.50
2018-06-15T09:29:22.072Z,45.50
2018-06-15T09:31:49.581Z,45.50
2018-06-15T09:34:17.070Z,45.40
2018-06-15T09:36:44.574Z,45.50
2018-06-15T09:39:12.244Z,45.60
2018-06-15T09:41:40.226Z,45.50
2018-06-15T09:44:07.714Z,45.40
2018-06-15T09:46:35.262Z,45.50
2018-06-15T09:49:02.814Z,45.50
2018-06-15T09:51:30.556Z,45.50
2018-06-15T09:53:58.153Z,45.50
2018-06-15T09:56:25.786Z,45.50
2018-06-15T09:58:54.936Z,45.50
2018-06-15T10:01:22.585Z,45.60
2018-06-15T10:03:50.238Z,45.50
2018-06-15T10:06:17.819Z,45.40
2018-06-15T10:08:45.505Z,46.10
2018-06-15T10:11:13.071Z,45.50
2018-06-15T10:13:40.729Z,45.30
2018-06-15T10:16:08.554Z,45.50
2018-06-15T10:21:03.482Z,45.40
2018-06-15T10:23:31.070Z,45.50
2018-06-15T10:25:58.641Z,45.50
2018-06-15T10:28:26.325Z,45.40
2018-06-15T10:30:53.955Z,45.40
2018-06-15T10:33:21.566Z,45.40
2018-06-15T10:35:49.220Z,45.40
2018-06-15T10:40:44.137Z,45.30
2018-06-15T10:43:11.735Z,45.30
2018-06-15T10:45:39.283Z,45.30
2018-06-15T10:48:06.769Z,45.90
2018-06-15T10:53:01.485Z,45.20
2018-06-15T10:55:28.992Z,45.20
2018-06-15T10:57:56.489Z,45.20
2018-06-15T11:00:24.042Z,45.20
2018-06-15T11:07:46.095Z,45.20
2018-06-15T11:15:08.265Z,45.20
2018-06-15T11:20:03.277Z,45.20
2018-06-15T11:22:30.890Z,45.10
2018-06-15T11:24:58.470Z,45.20
2018-06-15T11:27:26.033Z,45.20
2018-06-15T11:34:48.796Z,45.20
2018-06-15T11:37:16.367Z,45.20
2018-06-15T11:39:43.918Z,45.20
2018-06-15T11:44:38.941Z,45.20
2018-06-15T11:47:06.589Z,45.20
2018-06-15T11:49:34.318Z,45.20
2018-06-15T11:52:01.962Z,45.20
2018-06-15T11:56:56.728Z,45.20
2018-06-15T11:59:24.222Z,45.20
2018-06-15T12:01:51.832Z,45.20
2018-06-15T12:04:19.946Z,45.20
2018-06-15T12:06:47.462Z,45.20
2018-06-15T12:09:14.967Z,45.20
2018-06-15T12:11:42.480Z,45.20
2018-06-15T12:14:09.990Z,45.20
2018-06-15T12:19:05.006Z,45.30
2018-06-15T12:26:27.247Z,45.40
2018-06-15T12:33:49.404Z,45.60
2018-06-15T12:36:17.122Z,45.50
2018-06-15T12:38:44.699Z,45.60
2018-06-15T12:41:12.493Z,45.70
2018-06-15T12:43:40.079Z,45.70
2018-06-15T12:46:07.671Z,45.80
2018-06-15T12:48:35.282Z,45.70
2018-06-15T12:53:30.175Z,45.80
2018-06-15T12:55:57.827Z,45.80
2018-06-15T12:58:25.418Z,45.80
2018-06-15T13:00:53.015Z,45.80
2018-06-15T13:03:20.602Z,45.80
2018-06-15T13:05:48.170Z,45.80
2018-06-15T13:08:15.754Z,45.80
2018-06-15T13:10:43.761Z,45.80
2018-06-15T13:13:11.402Z,45.90
2018-06-15T13:15:39.020Z,46.00
2018-06-15T13:23:03.269Z,46.10
2018-06-15T13:25:30.991Z,46.10
2018-06-15T13:30:25.866Z,46.20
2018-06-15T13:32:53.466Z,46.20
2018-06-15T13:37:48.461Z,46.20
2018-06-15T13:40:16.019Z,46.30
2018-06-15T13:42:43.791Z,46.40
2018-06-15T14:04:31.765Z,46.50
2018-06-15T14:06:59.380Z,46.60
2018-06-15T14:09:27.072Z,46.60
2018-06-15T14:11:54.667Z,46.70
2018-06-15T14:14:22.329Z,46.70
2018-06-15T14:16:49.952Z,46.60
2018-06-15T14:36:03.532Z,46.70
2018-06-15T14:38:31.127Z,46.80
2018-06-15T14:57:43.909Z,47.60
2018-06-15T15:00:11.470Z,47.50
2018-06-15T15:19:21.120Z,47.50
2018-06-15T15:21:48.743Z,47.30
2018-06-15T15:24:16.367Z,47.30
2018-06-15T15:26:43.995Z,47.30
2018-06-15T16:02:28.109Z,47.30
2018-06-15T16:04:55.690Z,47.20
2018-06-15T16:09:50.653Z,47.20
2018-06-15T16:12:18.380Z,47.30
2018-06-15T16:31:31.166Z,47.30
2018-06-15T16:33:58.934Z,47.30
2018-06-15T16:36:26.687Z,47.30
2018-06-15T16:38:54.288Z,47.30
2018-06-15T16:41:21.895Z,47.30
2018-06-15T16:43:49.517Z,47.40
2018-06-15T17:00:05.924Z,47.40
2018-06-15T17:24:13.544Z,47.60
2018-06-15T17:29:08.703Z,48.20
2018-06-15T17:31:36.287Z,47.60
2018-06-15T17:34:03.940Z,47.60
2018-06-15T17:36:31.515Z,47.60
2018-06-15T17:55:44.312Z,47.50
2018-06-15T18:14:54.680Z,47.50
2018-06-15T18:17:22.523Z,47.60
2018-06-15T18:19:50.035Z,47.30
2018-06-15T19:00:38.375Z,48.10
2018-06-15T19:08:36.948Z,48.20
2018-06-15T19:11:04.456Z,48.10
2018-06-15T19:30:13.204Z,48.10
2018-06-15T19:32:40.787Z,48.10
2018-06-15T19:35:08.421Z,48.10
2018-06-15T19:54:19.629Z,48.30
2018-06-15T20:13:33.217Z,47.70
2018-06-15T20:16:00.842Z,47.70
2018-06-15T20:18:28.405Z,48.00
2018-06-15T20:20:56.071Z,47.90
2018-06-15T20:44:58.640Z,48.00
2018-06-15T20:47:35.863Z,48.20
2018-06-15T20:50:03.397Z,47.70
2018-06-15T20:52:31.188Z,48.20
2018-06-15T20:54:59.057Z,47.90
2018-06-15T21:16:38.926Z,47.70
2018-06-15T21:19:06.491Z,48.00
2018-06-15T21:24:01.362Z,48.10
2018-06-15T21:26:28.922Z,48.00
2018-06-15T21:28:56.752Z,47.50
2018-06-15T21:31:24.253Z,48.00
2018-06-15T21:41:13.936Z,47.90
2018-06-15T21:46:09.029Z,47.80
2018-06-15T22:05:24.453Z,47.70
2018-06-15T22:10:19.529Z,47.50
2018-06-15T22:12:47.192Z,47.80
2018-06-15T22:15:14.847Z,47.80
2018-06-15T22:17:42.534Z,47.50
2018-06-15T22:29:59.197Z,47.70
2018-06-15T22:32:26.803Z,47.50
2018-06-15T22:34:54.522Z,47.70
2018-06-15T22:37:22.219Z,47.70
2018-06-15T22:39:49.874Z,47.40
2018-06-15T22:42:17.510Z,47.60
2018-06-15T22:44:45.155Z,47.60
2018-06-15T22:47:12.737Z,47.60
2018-06-15T22:54:35.120Z,47.50
2018-06-15T22:57:02.745Z,47.60
2018-06-15T23:01:57.547Z,47.10
2018-06-15T23:04:25.230Z,47.50
2018-06-15T23:06:53.005Z,47.30
2018-06-15T23:09:20.722Z,47.50
2018-06-15T23:11:48.413Z,47.50
2018-06-15T23:14:16.096Z,47.50
2018-06-15T23:16:43.673Z,47.40
2018-06-15T23:19:11.391Z,47.40
2018-06-15T23:21:38.952Z,47.50
2018-06-15T23:24:06.415Z,47.10
2018-06-15T23:26:33.842Z,47.00
2018-06-15T23:29:01.447Z,46.80
2018-06-15T23:31:29.034Z,47.00
2018-06-15T23:33:56.499Z,47.10
2018-06-15T23:36:23.919Z,46.90
2018-06-15T23:38:51.347Z,46.80
2018-06-15T23:41:18.858Z,46.80
2018-06-15T23:43:46.270Z,46.80
2018-06-15T23:46:13.693Z,46.80
2018-06-15T23:48:41.138Z,47.20
2018-06-15T23:51:08.550Z,46.90
2018-06-15T23:53:35.979Z,47.10
2018-06-15T23:56:03.419Z,46.80
2018-06-15T23:58:30.854Z,47.30
